sensor_id;sensor_type;location;lat;lon;timestamp;temperature;humidity
2973;DHT22;1496;51.404;7.232;2023-07-29T00:01:58;18.60;99.90
2973;DHT22;1496;51.404;7.232;2023-07-29T00:04:23;18.60;99.90
2973;DHT22;1496;51.404;7.232;2023-07-29T00:06:49;18.60;99.90
2973;DHT22;1496;51.404;7.232;2023-07-29T00:09:15;18.60;99.90
2973;DHT22;1496;51.404;7.232;2023-07-29T00:11:40;18.60;99.90
2973;DHT22;1496;51.404;7.232;2023-07-29T00:14:06;18.60;99.90
2973;DHT22;1496;51.404;7.232;2023-07-29T00:16:31;18.60;99.90
2973;DHT22;1496;51.404;7.232;2023-07-29T00:18:58;18.50;99.90
2973;DHT22;1496;51.404;7.232;2023-07-29T00:21:23;18.50;99.90
2973;DHT22;1496;51.404;7.232;2023-07-29T00:23:49;18.50;99.90
2973;DHT22;1496;51.404;7.232;2023-07-29T00:26:14;18.50;99.90
2973;DHT22;1496;51.404;7.232;2023-07-29T00:28:40;18.50;99.90
2973;DHT22;1496;51.404;7.232;2023-07-29T00:31:06;18.50;99.90
2973;DHT22;1496;51.404;7.232;2023-07-29T00:33:33;18.50;99.90
2973;DHT22;1496;51.404;7.232;2023-07-29T00:35:59;18.40;99.90
2973;DHT22;1496;51.404;7.232;2023-07-29T00:38:27;18.40;99.90
2973;DHT22;1496;51.404;7.232;2023-07-29T00:40:54;18.40;99.90
2973;DHT22;1496;51.404;7.232;2023-07-29T00:43:19;18.30;99.90
2973;DHT22;1496;51.404;7.232;2023-07-29T00:45:45;18.40;99.90
2973;DHT22;1496;51.404;7.232;2023-07-29T00:48:13;18.30;99.90
2973;DHT22;1496;51.404;7.232;2023-07-29T00:50:39;18.30;99.90
2973;DHT22;1496;51.404;7.232;2023-07-29T00:53:05;18.30;99.90
2973;DHT22;1496;51.404;7.232;2023-07-29T00:55:31;18.20;99.90
2973;DHT22;1496;51.404;7.232;2023-07-29T00:57:57;18.20;99.90
2973;DHT22;1496;51.404;7.232;2023-07-29T01:00:23;18.20;99.90
2973;DHT22;1496;51.404;7.232;2023-07-29T01:02:50;18.20;99.90
2973;DHT22;1496;51.404;7.232;2023-07-29T01:05:16;18.20;99.90
2973;DHT22;1496;51.404;7.232;2023-07-29T01:07:51;18.20;99.90
2973;DHT22;1496;51.404;7.232;2023-07-29T01:10:29;18.20;99.90
2973;DHT22;1496;51.404;7.232;2023-07-29T01:13:10;18.20;99.90
2973;DHT22;1496;51.404;7.232;2023-07-29T01:15:59;18.30;99.90
2973;DHT22;1496;51.404;7.232;2023-07-29T01:18:31;18.20;99.90
2973;DHT22;1496;51.404;7.232;2023-07-29T01:21:07;18.20;99.90
2973;DHT22;1496;51.404;7.232;2023-07-29T01:23:34;18.20;99.90
2973;DHT22;1496;51.404;7.232;2023-07-29T01:26:01;18.20;99.90
2973;DHT22;1496;51.404;7.232;2023-07-29T01:28:27;18.10;99.90
2973;DHT22;1496;51.404;7.232;2023-07-29T01:31:02;18.10;99.90
2973;DHT22;1496;51.404;7.232;2023-07-29T01:33:34;18.00;99.90
2973;DHT22;1496;51.404;7.232;2023-07-29T01:36:11;18.00;99.90
2973;DHT22;1496;51.404;7.232;2023-07-29T01:38:40;17.90;99.90
2973;DHT22;1496;51.404;7.232;2023-07-29T01:41:08;17.90;99.90
2973;DHT22;1496;51.404;7.232;2023-07-29T01:43:34;17.90;99.90
2973;DHT22;1496;51.404;7.232;2023-07-29T01:46:05;17.90;99.90
2973;DHT22;1496;51.404;7.232;2023-07-29T01:48:31;17.90;99.90
2973;DHT22;1496;51.404;7.232;2023-07-29T01:50:57;17.90;99.90
2973;DHT22;1496;51.404;7.232;2023-07-29T01:53:23;18.00;99.90
2973;DHT22;1496;51.404;7.232;2023-07-29T01:55:49;17.90;99.90
2973;DHT22;1496;51.404;7.232;2023-07-29T01:58:15;17.80;99.90
2973;DHT22;1496;51.404;7.232;2023-07-29T02:00:45;17.90;99.90
2973;DHT22;1496;51.404;7.232;2023-07-29T02:03:10;17.90;99.90
2973;DHT22;1496;51.404;7.232;2023-07-29T02:05:36;17.90;99.90
2973;DHT22;1496;51.404;7.232;2023-07-29T02:08:02;17.90;99.90
2973;DHT22;1496;51.404;7.232;2023-07-29T02:10:27;17.90;99.90
2973;DHT22;1496;51.404;7.232;2023-07-29T02:12:53;17.90;99.90
2973;DHT22;1496;51.404;7.232;2023-07-29T02:15:19;17.90;99.90
2973;DHT22;1496;51.404;7.232;2023-07-29T02:17:45;17.90;99.90
2973;DHT22;1496;51.404;7.232;2023-07-29T02:20:11;17.90;99.90
2973;DHT22;1496;51.404;7.232;2023-07-29T02:22:37;17.90;99.90
2973;DHT22;1496;51.404;7.232;2023-07-29T02:25:03;17.90;99.90
2973;DHT22;1496;51.404;7.232;2023-07-29T02:27:28;17.90;99.90
2973;DHT22;1496;51.404;7.232;2023-07-29T02:29:54;17.90;99.90
2973;DHT22;1496;51.404;7.232;2023-07-29T02:32:21;17.90;99.90
2973;DHT22;1496;51.404;7.232;2023-07-29T02:34:46;17.90;99.90
2973;DHT22;1496;51.404;7.232;2023-07-29T02:37:13;18.00;99.90
2973;DHT22;1496;51.404;7.232;2023-07-29T02:39:38;18.00;99.90
2973;DHT22;1496;51.404;7.232;2023-07-29T02:42:04;18.00;99.90
2973;DHT22;1496;51.404;7.232;2023-07-29T02:44:30;18.00;99.90
2973;DHT22;1496;51.404;7.232;2023-07-29T02:46:56;18.00;99.90
2973;DHT22;1496;51.404;7.232;2023-07-29T02:49:22;18.00;99.90
2973;DHT22;1496;51.404;7.232;2023-07-29T02:51:48;18.00;99.90
2973;DHT22;1496;51.404;7.232;2023-07-29T02:54:14;18.00;99.90
2973;DHT22;1496;51.404;7.232;2023-07-29T02:56:40;18.00;99.90
2973;DHT22;1496;51.404;7.232;2023-07-29T02:59:05;18.00;99.90
2973;DHT22;1496;51.404;7.232;2023-07-29T03:01:31;18.00;99.90
2973;DHT22;1496;51.404;7.232;2023-07-29T03:03:57;18.00;99.90
2973;DHT22;1496;51.404;7.232;2023-07-29T03:06:24;18.00;99.90
2973;DHT22;1496;51.404;7.232;2023-07-29T03:08:49;18.00;99.90
2973;DHT22;1496;51.404;7.232;2023-07-29T03:11:16;18.00;99.90
2973;DHT22;1496;51.404;7.232;2023-07-29T03:13:43;18.00;99.90
2973;DHT22;1496;51.404;7.232;2023-07-29T03:16:12;18.00;99.90
2973;DHT22;1496;51.404;7.232;2023-07-29T03:18:38;18.00;99.90
2973;DHT22;1496;51.404;7.232;2023-07-29T03:21:04;18.00;99.90
2973;DHT22;1496;51.404;7.232;2023-07-29T03:23:31;18.00;99.90
2973;DHT22;1496;51.404;7.232;2023-07-29T03:25:58;18.00;99.90
2973;DHT22;1496;51.404;7.232;2023-07-29T03:28:25;18.00;99.90
2973;DHT22;1496;51.404;7.232;2023-07-29T03:30:51;18.00;99.90
2973;DHT22;1496;51.404;7.232;2023-07-29T03:33:17;18.10;99.90
2973;DHT22;1496;51.404;7.232;2023-07-29T03:35:42;18.10;99.90
2973;DHT22;1496;51.404;7.232;2023-07-29T03:38:10;18.10;99.90
2973;DHT22;1496;51.404;7.232;2023-07-29T03:40:37;18.10;99.90
2973;DHT22;1496;51.404;7.232;2023-07-29T03:43:03;18.10;99.90
2973;DHT22;1496;51.404;7.232;2023-07-29T03:45:28;18.10;99.90
2973;DHT22;1496;51.404;7.232;2023-07-29T03:47:54;18.10;99.90
2973;DHT22;1496;51.404;7.232;2023-07-29T03:50:20;18.10;99.90
2973;DHT22;1496;51.404;7.232;2023-07-29T03:52:45;18.10;99.90
2973;DHT22;1496;51.404;7.232;2023-07-29T03:55:11;18.10;99.90
2973;DHT22;1496;51.404;7.232;2023-07-29T03:57:37;18.10;99.90
2973;DHT22;1496;51.404;7.232;2023-07-29T04:00:04;18.10;99.90
2973;DHT22;1496;51.404;7.232;2023-07-29T04:02:41;18.10;99.90
2973;DHT22;1496;51.404;7.232;2023-07-29T04:05:09;18.10;99.90
2973;DHT22;1496;51.404;7.232;2023-07-29T04:07:35;18.10;99.90
2973;DHT22;1496;51.404;7.232;2023-07-29T04:10:02;18.10;99.90
2973;DHT22;1496;51.404;7.232;2023-07-29T04:12:28;18.10;99.90
2973;DHT22;1496;51.404;7.232;2023-07-29T04:14:54;18.20;99.90
2973;DHT22;1496;51.404;7.232;2023-07-29T04:17:19;18.10;99.90
2973;DHT22;1496;51.404;7.232;2023-07-29T04:19:45;18.10;99.90
2973;DHT22;1496;51.404;7.232;2023-07-29T04:22:11;18.10;99.90
2973;DHT22;1496;51.404;7.232;2023-07-29T04:24:37;18.20;99.90
2973;DHT22;1496;51.404;7.232;2023-07-29T04:27:03;18.20;99.90
2973;DHT22;1496;51.404;7.232;2023-07-29T04:29:29;18.20;99.90
2973;DHT22;1496;51.404;7.232;2023-07-29T04:31:55;18.20;99.90
2973;DHT22;1496;51.404;7.232;2023-07-29T04:34:21;18.20;99.90
2973;DHT22;1496;51.404;7.232;2023-07-29T04:36:47;18.20;99.90
2973;DHT22;1496;51.404;7.232;2023-07-29T04:39:13;18.20;99.90
2973;DHT22;1496;51.404;7.232;2023-07-29T04:41:38;18.20;99.90
2973;DHT22;1496;51.404;7.232;2023-07-29T04:44:04;18.20;99.90
2973;DHT22;1496;51.404;7.232;2023-07-29T04:46:32;18.20;99.90
2973;DHT22;1496;51.404;7.232;2023-07-29T04:48:57;18.20;99.90
2973;DHT22;1496;51.404;7.232;2023-07-29T04:51:24;18.20;99.90
2973;DHT22;1496;51.404;7.232;2023-07-29T04:53:50;18.20;99.90
2973;DHT22;1496;51.404;7.232;2023-07-29T04:56:15;18.20;99.90
2973;DHT22;1496;51.404;7.232;2023-07-29T04:58:41;18.20;99.90
2973;DHT22;1496;51.404;7.232;2023-07-29T05:01:07;18.20;99.90
2973;DHT22;1496;51.404;7.232;2023-07-29T05:03:33;18.20;99.90
2973;DHT22;1496;51.404;7.232;2023-07-29T05:06:00;18.10;99.90
2973;DHT22;1496;51.404;7.232;2023-07-29T05:08:27;18.10;99.90
2973;DHT22;1496;51.404;7.232;2023-07-29T05:10:53;18.00;99.90
2973;DHT22;1496;51.404;7.232;2023-07-29T05:13:19;17.90;99.90
2973;DHT22;1496;51.404;7.232;2023-07-29T05:15:47;17.90;99.90
2973;DHT22;1496;51.404;7.232;2023-07-29T05:18:14;17.90;99.90
2973;DHT22;1496;51.404;7.232;2023-07-29T05:20:40;17.90;99.90
2973;DHT22;1496;51.404;7.232;2023-07-29T05:23:06;17.90;99.90
2973;DHT22;1496;51.404;7.232;2023-07-29T05:25:32;17.80;99.90
2973;DHT22;1496;51.404;7.232;2023-07-29T05:27:57;17.80;99.90
2973;DHT22;1496;51.404;7.232;2023-07-29T05:30:23;17.80;99.90
2973;DHT22;1496;51.404;7.232;2023-07-29T05:32:49;17.80;99.90
2973;DHT22;1496;51.404;7.232;2023-07-29T05:35:15;17.90;99.90
2973;DHT22;1496;51.404;7.232;2023-07-29T05:37:41;17.90;99.90
2973;DHT22;1496;51.404;7.232;2023-07-29T05:40:07;18.00;99.90
2973;DHT22;1496;51.404;7.232;2023-07-29T05:42:34;18.00;99.90
2973;DHT22;1496;51.404;7.232;2023-07-29T05:45:00;18.00;99.90
2973;DHT22;1496;51.404;7.232;2023-07-29T05:47:26;18.00;99.90
2973;DHT22;1496;51.404;7.232;2023-07-29T05:49:52;18.00;99.90
2973;DHT22;1496;51.404;7.232;2023-07-29T05:52:18;18.10;99.90
2973;DHT22;1496;51.404;7.232;2023-07-29T05:54:44;18.00;99.90
2973;DHT22;1496;51.404;7.232;2023-07-29T05:57:11;18.00;99.90
2973;DHT22;1496;51.404;7.232;2023-07-29T05:59:37;18.00;99.90
2973;DHT22;1496;51.404;7.232;2023-07-29T06:02:03;18.00;99.90
2973;DHT22;1496;51.404;7.232;2023-07-29T06:04:29;17.90;99.90
2973;DHT22;1496;51.404;7.232;2023-07-29T06:06:55;17.90;99.90
2973;DHT22;1496;51.404;7.232;2023-07-29T06:09:22;17.90;99.90
2973;DHT22;1496;51.404;7.232;2023-07-29T06:11:47;17.80;99.90
2973;DHT22;1496;51.404;7.232;2023-07-29T06:14:13;17.80;99.90
2973;DHT22;1496;51.404;7.232;2023-07-29T06:16:40;17.80;99.90
2973;DHT22;1496;51.404;7.232;2023-07-29T06:19:06;17.70;99.90
2973;DHT22;1496;51.404;7.232;2023-07-29T06:21:34;17.60;99.90
2973;DHT22;1496;51.404;7.232;2023-07-29T06:24:00;17.70;99.90
2973;DHT22;1496;51.404;7.232;2023-07-29T06:26:26;17.70;99.90
2973;DHT22;1496;51.404;7.232;2023-07-29T06:28:54;17.60;99.90
2973;DHT22;1496;51.404;7.232;2023-07-29T06:31:21;17.70;99.90
2973;DHT22;1496;51.404;7.232;2023-07-29T06:33:47;17.60;99.90
2973;DHT22;1496;51.404;7.232;2023-07-29T06:36:13;17.70;99.90
2973;DHT22;1496;51.404;7.232;2023-07-29T06:38:39;17.60;99.90
2973;DHT22;1496;51.404;7.232;2023-07-29T06:41:05;17.60;99.90
2973;DHT22;1496;51.404;7.232;2023-07-29T06:43:31;17.60;99.90
2973;DHT22;1496;51.404;7.232;2023-07-29T06:45:56;17.50;99.90
2973;DHT22;1496;51.404;7.232;2023-07-29T06:48:22;17.40;99.90
2973;DHT22;1496;51.404;7.232;2023-07-29T06:50:49;17.30;99.90
2973;DHT22;1496;51.404;7.232;2023-07-29T06:53:16;17.30;99.90
2973;DHT22;1496;51.404;7.232;2023-07-29T06:55:43;17.40;99.90
2973;DHT22;1496;51.404;7.232;2023-07-29T06:58:09;17.50;99.90
2973;DHT22;1496;51.404;7.232;2023-07-29T07:00:34;17.50;99.90
2973;DHT22;1496;51.404;7.232;2023-07-29T07:03:00;17.50;99.90
2973;DHT22;1496;51.404;7.232;2023-07-29T07:05:25;17.40;99.90
2973;DHT22;1496;51.404;7.232;2023-07-29T07:07:51;17.30;99.90
2973;DHT22;1496;51.404;7.232;2023-07-29T07:10:17;17.40;99.90
2973;DHT22;1496;51.404;7.232;2023-07-29T07:12:43;17.40;99.90
2973;DHT22;1496;51.404;7.232;2023-07-29T07:15:09;17.40;99.90
2973;DHT22;1496;51.404;7.232;2023-07-29T07:17:34;17.40;99.90
2973;DHT22;1496;51.404;7.232;2023-07-29T07:20:00;17.30;99.90
2973;DHT22;1496;51.404;7.232;2023-07-29T07:22:26;17.30;99.90
2973;DHT22;1496;51.404;7.232;2023-07-29T07:24:51;17.50;99.90
2973;DHT22;1496;51.404;7.232;2023-07-29T07:27:17;17.70;99.90
2973;DHT22;1496;51.404;7.232;2023-07-29T07:29:43;17.70;99.90
2973;DHT22;1496;51.404;7.232;2023-07-29T07:32:08;17.90;99.90
2973;DHT22;1496;51.404;7.232;2023-07-29T07:34:34;18.00;99.90
2973;DHT22;1496;51.404;7.232;2023-07-29T07:37:00;18.10;99.90
2973;DHT22;1496;51.404;7.232;2023-07-29T07:39:26;18.10;99.90
2973;DHT22;1496;51.404;7.232;2023-07-29T07:41:52;18.20;99.90
2973;DHT22;1496;51.404;7.232;2023-07-29T07:44:18;18.30;99.90
2973;DHT22;1496;51.404;7.232;2023-07-29T07:46:45;18.40;99.90
2973;DHT22;1496;51.404;7.232;2023-07-29T07:49:11;18.50;99.90
2973;DHT22;1496;51.404;7.232;2023-07-29T07:51:38;18.40;99.90
2973;DHT22;1496;51.404;7.232;2023-07-29T07:54:04;18.50;99.90
2973;DHT22;1496;51.404;7.232;2023-07-29T07:56:30;18.50;99.90
2973;DHT22;1496;51.404;7.232;2023-07-29T07:58:56;18.60;99.90
2973;DHT22;1496;51.404;7.232;2023-07-29T08:01:21;18.70;99.90
2973;DHT22;1496;51.404;7.232;2023-07-29T08:03:47;18.70;25.70
2973;DHT22;1496;51.404;7.232;2023-07-29T08:06:13;18.80;99.90
2973;DHT22;1496;51.404;7.232;2023-07-29T08:08:38;18.70;99.90
2973;DHT22;1496;51.404;7.232;2023-07-29T08:11:04;18.80;99.90
2973;DHT22;1496;51.404;7.232;2023-07-29T08:13:30;18.70;99.90
2973;DHT22;1496;51.404;7.232;2023-07-29T08:15:55;18.60;99.90
2973;DHT22;1496;51.404;7.232;2023-07-29T08:18:21;18.70;99.90
2973;DHT22;1496;51.404;7.232;2023-07-29T08:20:54;18.70;99.90
2973;DHT22;1496;51.404;7.232;2023-07-29T08:23:21;18.60;99.90
2973;DHT22;1496;51.404;7.232;2023-07-29T08:25:58;18.60;99.90
2973;DHT22;1496;51.404;7.232;2023-07-29T08:28:37;18.70;99.90
2973;DHT22;1496;51.404;7.232;2023-07-29T08:31:04;18.80;99.90
2973;DHT22;1496;51.404;7.232;2023-07-29T08:33:31;18.80;99.90
2973;DHT22;1496;51.404;7.232;2023-07-29T08:35:57;18.90;1.00
2973;DHT22;1496;51.404;7.232;2023-07-29T08:38:22;18.80;1.00
2973;DHT22;1496;51.404;7.232;2023-07-29T08:43:36;19.10;1.00
2973;DHT22;1496;51.404;7.232;2023-07-29T08:46:03;19.00;1.00
2973;DHT22;1496;51.404;7.232;2023-07-29T08:48:36;19.10;30.00
2973;DHT22;1496;51.404;7.232;2023-07-29T08:51:05;19.10;17.90
2973;DHT22;1496;51.404;7.232;2023-07-29T08:53:33;18.90;26.00
2973;DHT22;1496;51.404;7.232;2023-07-29T08:55:59;18.80;52.50
2973;DHT22;1496;51.404;7.232;2023-07-29T08:58:25;18.80;99.90
2973;DHT22;1496;51.404;7.232;2023-07-29T09:00:51;18.90;96.80
2973;DHT22;1496;51.404;7.232;2023-07-29T09:03:17;19.20;1.00
2973;DHT22;1496;51.404;7.232;2023-07-29T09:05:43;19.30;1.00
2973;DHT22;1496;51.404;7.232;2023-07-29T09:08:09;19.30;1.00
2973;DHT22;1496;51.404;7.232;2023-07-29T09:10:36;19.40;1.00
2973;DHT22;1496;51.404;7.232;2023-07-29T09:13:06;19.70;1.00
2973;DHT22;1496;51.404;7.232;2023-07-29T09:15:34;19.90;1.00
2973;DHT22;1496;51.404;7.232;2023-07-29T09:18:09;20.00;1.00
2973;DHT22;1496;51.404;7.232;2023-07-29T09:20:35;20.00;99.90
2973;DHT22;1496;51.404;7.232;2023-07-29T09:23:01;19.90;1.00
2973;DHT22;1496;51.404;7.232;2023-07-29T09:25:30;20.00;99.90
2973;DHT22;1496;51.404;7.232;2023-07-29T09:27:59;20.20;99.90
2973;DHT22;1496;51.404;7.232;2023-07-29T09:30:26;20.60;99.90
2973;DHT22;1496;51.404;7.232;2023-07-29T09:32:58;20.80;99.90
2973;DHT22;1496;51.404;7.232;2023-07-29T09:35:27;20.60;99.90
2973;DHT22;1496;51.404;7.232;2023-07-29T09:37:53;20.70;99.90
2973;DHT22;1496;51.404;7.232;2023-07-29T09:40:19;20.40;99.90
2973;DHT22;1496;51.404;7.232;2023-07-29T09:42:54;20.40;99.90
2973;DHT22;1496;51.404;7.232;2023-07-29T09:47:47;20.20;99.90
2973;DHT22;1496;51.404;7.232;2023-07-29T09:50:13;20.40;99.90
2973;DHT22;1496;51.404;7.232;2023-07-29T09:52:38;20.30;99.90
2973;DHT22;1496;51.404;7.232;2023-07-29T09:55:04;20.10;99.90
2973;DHT22;1496;51.404;7.232;2023-07-29T09:57:32;20.00;99.90
2973;DHT22;1496;51.404;7.232;2023-07-29T10:00:00;20.00;99.90
2973;DHT22;1496;51.404;7.232;2023-07-29T10:02:26;19.90;99.90
2973;DHT22;1496;51.404;7.232;2023-07-29T10:04:55;19.80;99.90
2973;DHT22;1496;51.404;7.232;2023-07-29T10:07:21;19.80;99.90
2973;DHT22;1496;51.404;7.232;2023-07-29T10:09:48;19.80;99.90
2973;DHT22;1496;51.404;7.232;2023-07-29T10:12:16;19.80;99.90
2973;DHT22;1496;51.404;7.232;2023-07-29T10:14:42;19.90;99.90
2973;DHT22;1496;51.404;7.232;2023-07-29T10:17:09;19.90;99.90
2973;DHT22;1496;51.404;7.232;2023-07-29T10:19:35;20.00;99.90
2973;DHT22;1496;51.404;7.232;2023-07-29T10:22:03;20.10;99.90
2973;DHT22;1496;51.404;7.232;2023-07-29T10:24:30;20.30;99.90
2973;DHT22;1496;51.404;7.232;2023-07-29T10:26:59;20.70;99.90
2973;DHT22;1496;51.404;7.232;2023-07-29T10:29:29;21.00;99.90
2973;DHT22;1496;51.404;7.232;2023-07-29T10:31:57;21.20;99.90
2973;DHT22;1496;51.404;7.232;2023-07-29T10:34:24;21.00;99.90
2973;DHT22;1496;51.404;7.232;2023-07-29T10:36:50;21.00;99.90
2973;DHT22;1496;51.404;7.232;2023-07-29T10:39:17;21.20;99.90
2973;DHT22;1496;51.404;7.232;2023-07-29T10:42:01;21.30;99.90
2973;DHT22;1496;51.404;7.232;2023-07-29T10:49:42;21.60;99.90
2973;DHT22;1496;51.404;7.232;2023-07-29T10:52:08;21.60;99.90
2973;DHT22;1496;51.404;7.232;2023-07-29T10:54:47;21.80;99.90
2973;DHT22;1496;51.404;7.232;2023-07-29T10:57:37;21.70;99.90
2973;DHT22;1496;51.404;7.232;2023-07-29T11:00:04;21.60;99.90
2973;DHT22;1496;51.404;7.232;2023-07-29T11:02:37;21.40;99.90
2973;DHT22;1496;51.404;7.232;2023-07-29T11:05:17;21.60;99.90
2973;DHT22;1496;51.404;7.232;2023-07-29T11:07:49;21.40;99.90
2973;DHT22;1496;51.404;7.232;2023-07-29T11:10:15;21.10;99.90
2973;DHT22;1496;51.404;7.232;2023-07-29T11:12:46;21.00;99.90
2973;DHT22;1496;51.404;7.232;2023-07-29T11:17:56;21.70;99.90
2973;DHT22;1496;51.404;7.232;2023-07-29T11:20:25;21.50;99.90
2973;DHT22;1496;51.404;7.232;2023-07-29T11:22:53;21.20;99.90
2973;DHT22;1496;51.404;7.232;2023-07-29T11:25:20;21.20;99.90
2973;DHT22;1496;51.404;7.232;2023-07-29T11:27:46;21.20;99.90
2973;DHT22;1496;51.404;7.232;2023-07-29T11:30:13;21.40;99.90
2973;DHT22;1496;51.404;7.232;2023-07-29T11:32:41;21.90;99.90
2973;DHT22;1496;51.404;7.232;2023-07-29T11:35:09;22.30;99.90
2973;DHT22;1496;51.404;7.232;2023-07-29T11:37:37;22.60;99.90
2973;DHT22;1496;51.404;7.232;2023-07-29T11:40:03;22.80;99.90
2973;DHT22;1496;51.404;7.232;2023-07-29T11:42:32;22.60;99.90
2973;DHT22;1496;51.404;7.232;2023-07-29T11:44:59;22.60;99.90
2973;DHT22;1496;51.404;7.232;2023-07-29T11:47:25;22.70;99.90
2973;DHT22;1496;51.404;7.232;2023-07-29T11:49:51;22.60;99.90
2973;DHT22;1496;51.404;7.232;2023-07-29T11:52:17;22.10;99.90
2973;DHT22;1496;51.404;7.232;2023-07-29T11:54:46;21.80;99.90
2973;DHT22;1496;51.404;7.232;2023-07-29T11:57:12;21.70;99.90
2973;DHT22;1496;51.404;7.232;2023-07-29T11:59:39;21.80;99.90
2973;DHT22;1496;51.404;7.232;2023-07-29T12:02:16;22.20;99.90
2973;DHT22;1496;51.404;7.232;2023-07-29T12:04:43;22.70;99.90
2973;DHT22;1496;51.404;7.232;2023-07-29T12:07:10;22.30;99.90
2973;DHT22;1496;51.404;7.232;2023-07-29T12:09:36;21.90;99.90
2973;DHT22;1496;51.404;7.232;2023-07-29T12:12:06;21.70;99.90
2973;DHT22;1496;51.404;7.232;2023-07-29T12:14:33;21.50;99.90
2973;DHT22;1496;51.404;7.232;2023-07-29T12:17:03;21.40;99.90
2973;DHT22;1496;51.404;7.232;2023-07-29T12:19:37;21.40;99.90
2973;DHT22;1496;51.404;7.232;2023-07-29T12:22:04;21.20;99.90
2973;DHT22;1496;51.404;7.232;2023-07-29T12:24:31;21.20;99.90
2973;DHT22;1496;51.404;7.232;2023-07-29T12:26:57;21.40;99.90
2973;DHT22;1496;51.404;7.232;2023-07-29T12:29:23;21.90;99.90
2973;DHT22;1496;51.404;7.232;2023-07-29T12:32:00;22.40;99.90
2973;DHT22;1496;51.404;7.232;2023-07-29T12:34:28;22.60;99.90
2973;DHT22;1496;51.404;7.232;2023-07-29T12:36:54;22.50;99.90
2973;DHT22;1496;51.404;7.232;2023-07-29T12:39:28;22.60;99.90
2973;DHT22;1496;51.404;7.232;2023-07-29T12:41:58;22.70;99.90
2973;DHT22;1496;51.404;7.232;2023-07-29T12:44:25;22.50;99.90
2973;DHT22;1496;51.404;7.232;2023-07-29T12:46:51;22.10;99.90
2973;DHT22;1496;51.404;7.232;2023-07-29T12:49:18;21.80;99.90
2973;DHT22;1496;51.404;7.232;2023-07-29T12:51:44;21.90;99.90
2973;DHT22;1496;51.404;7.232;2023-07-29T12:54:10;22.30;99.90
2973;DHT22;1496;51.404;7.232;2023-07-29T12:56:36;22.80;99.90
2973;DHT22;1496;51.404;7.232;2023-07-29T12:59:02;22.80;99.90
2973;DHT22;1496;51.404;7.232;2023-07-29T13:01:28;22.90;99.90
2973;DHT22;1496;51.404;7.232;2023-07-29T13:03:55;23.00;99.90
2973;DHT22;1496;51.404;7.232;2023-07-29T13:06:21;23.10;99.90
2973;DHT22;1496;51.404;7.232;2023-07-29T13:08:48;23.30;99.90
2973;DHT22;1496;51.404;7.232;2023-07-29T13:11:14;23.20;99.90
2973;DHT22;1496;51.404;7.232;2023-07-29T13:13:40;23.00;99.90
2973;DHT22;1496;51.404;7.232;2023-07-29T13:16:06;22.60;99.90
2973;DHT22;1496;51.404;7.232;2023-07-29T13:18:32;22.20;99.90
2973;DHT22;1496;51.404;7.232;2023-07-29T13:20:58;21.90;99.90
2973;DHT22;1496;51.404;7.232;2023-07-29T13:23:25;21.90;99.90
2973;DHT22;1496;51.404;7.232;2023-07-29T13:25:51;21.90;99.90
2973;DHT22;1496;51.404;7.232;2023-07-29T13:28:18;22.00;99.90
2973;DHT22;1496;51.404;7.232;2023-07-29T13:30:44;22.20;99.90
2973;DHT22;1496;51.404;7.232;2023-07-29T13:33:10;22.60;99.90
2973;DHT22;1496;51.404;7.232;2023-07-29T13:35:36;22.80;99.90
2973;DHT22;1496;51.404;7.232;2023-07-29T13:38:02;22.50;99.90
2973;DHT22;1496;51.404;7.232;2023-07-29T13:40:28;22.40;99.90
2973;DHT22;1496;51.404;7.232;2023-07-29T13:42:55;22.20;99.90
2973;DHT22;1496;51.404;7.232;2023-07-29T13:45:21;22.00;99.90
2973;DHT22;1496;51.404;7.232;2023-07-29T13:47:47;21.90;99.90
2973;DHT22;1496;51.404;7.232;2023-07-29T13:50:13;21.80;99.90
2973;DHT22;1496;51.404;7.232;2023-07-29T13:52:39;21.70;99.90
2973;DHT22;1496;51.404;7.232;2023-07-29T13:55:05;21.70;99.90
2973;DHT22;1496;51.404;7.232;2023-07-29T13:57:32;21.50;99.90
2973;DHT22;1496;51.404;7.232;2023-07-29T13:59:58;21.50;99.90
2973;DHT22;1496;51.404;7.232;2023-07-29T14:02:24;21.40;99.90
2973;DHT22;1496;51.404;7.232;2023-07-29T14:04:52;21.40;99.90
2973;DHT22;1496;51.404;7.232;2023-07-29T14:07:18;21.40;99.90
2973;DHT22;1496;51.404;7.232;2023-07-29T14:09:43;21.30;99.90
2973;DHT22;1496;51.404;7.232;2023-07-29T14:12:09;21.10;99.90
2973;DHT22;1496;51.404;7.232;2023-07-29T14:14:40;20.80;99.90
2973;DHT22;1496;51.404;7.232;2023-07-29T14:17:06;20.40;99.90
2973;DHT22;1496;51.404;7.232;2023-07-29T14:19:34;20.20;99.90
2973;DHT22;1496;51.404;7.232;2023-07-29T14:21:59;19.90;1.00
2973;DHT22;1496;51.404;7.232;2023-07-29T14:24:25;19.60;1.00
2973;DHT22;1496;51.404;7.232;2023-07-29T14:26:51;19.60;1.00
2973;DHT22;1496;51.404;7.232;2023-07-29T14:29:16;19.60;88.70
2973;DHT22;1496;51.404;7.232;2023-07-29T14:31:42;19.60;99.90
2973;DHT22;1496;51.404;7.232;2023-07-29T14:34:07;19.70;1.00
2973;DHT22;1496;51.404;7.232;2023-07-29T14:36:36;19.70;99.90
2973;DHT22;1496;51.404;7.232;2023-07-29T14:39:02;19.80;99.90
2973;DHT22;1496;51.404;7.232;2023-07-29T14:41:28;20.00;1.00
2973;DHT22;1496;51.404;7.232;2023-07-29T14:43:53;20.10;1.00
2973;DHT22;1496;51.404;7.232;2023-07-29T14:46:19;20.10;4.80
2973;DHT22;1496;51.404;7.232;2023-07-29T14:48:45;20.00;1.00
2973;DHT22;1496;51.404;7.232;2023-07-29T14:51:12;20.00;1.00
2973;DHT22;1496;51.404;7.232;2023-07-29T14:53:38;20.10;99.90
2973;DHT22;1496;51.404;7.232;2023-07-29T14:56:04;20.20;99.90
2973;DHT22;1496;51.404;7.232;2023-07-29T14:58:30;19.90;1.00
2973;DHT22;1496;51.404;7.232;2023-07-29T15:00:55;19.70;1.00
2973;DHT22;1496;51.404;7.232;2023-07-29T15:03:21;19.60;1.00
2973;DHT22;1496;51.404;7.232;2023-07-29T15:05:47;19.50;1.00
2973;DHT22;1496;51.404;7.232;2023-07-29T15:08:13;19.30;1.00
2973;DHT22;1496;51.404;7.232;2023-07-29T15:10:38;19.20;1.00
2973;DHT22;1496;51.404;7.232;2023-07-29T15:13:04;19.20;1.00
2973;DHT22;1496;51.404;7.232;2023-07-29T15:15:29;19.30;1.00
2973;DHT22;1496;51.404;7.232;2023-07-29T15:17:55;19.40;99.90
2973;DHT22;1496;51.404;7.232;2023-07-29T15:20:22;19.30;99.90
2973;DHT22;1496;51.404;7.232;2023-07-29T15:22:48;19.50;1.00
2973;DHT22;1496;51.404;7.232;2023-07-29T15:25:13;19.50;99.90
2973;DHT22;1496;51.404;7.232;2023-07-29T15:27:39;19.60;99.90
2973;DHT22;1496;51.404;7.232;2023-07-29T15:30:06;19.60;48.50
2973;DHT22;1496;51.404;7.232;2023-07-29T15:32:32;19.60;1.00
2973;DHT22;1496;51.404;7.232;2023-07-29T15:34:57;19.60;1.00
2973;DHT22;1496;51.404;7.232;2023-07-29T15:37:25;19.70;1.00
2973;DHT22;1496;51.404;7.232;2023-07-29T15:39:51;19.80;29.70
2973;DHT22;1496;51.404;7.232;2023-07-29T15:42:17;19.80;1.00
2973;DHT22;1496;51.404;7.232;2023-07-29T15:44:42;19.90;1.00
2973;DHT22;1496;51.404;7.232;2023-07-29T15:47:08;20.00;1.00
2973;DHT22;1496;51.404;7.232;2023-07-29T15:49:34;20.10;1.00
2973;DHT22;1496;51.404;7.232;2023-07-29T15:52:00;20.10;1.00
2973;DHT22;1496;51.404;7.232;2023-07-29T15:54:26;20.10;1.00
2973;DHT22;1496;51.404;7.232;2023-07-29T15:56:51;20.20;1.00
2973;DHT22;1496;51.404;7.232;2023-07-29T15:59:17;20.20;99.90
2973;DHT22;1496;51.404;7.232;2023-07-29T16:01:43;20.20;99.90
2973;DHT22;1496;51.404;7.232;2023-07-29T16:04:08;20.20;99.90
2973;DHT22;1496;51.404;7.232;2023-07-29T16:06:34;20.20;99.90
2973;DHT22;1496;51.404;7.232;2023-07-29T16:09:01;20.20;99.90
2973;DHT22;1496;51.404;7.232;2023-07-29T16:11:32;20.30;99.90
2973;DHT22;1496;51.404;7.232;2023-07-29T16:13:58;20.30;99.90